createdAt,value
2022-10-28T00:00:37.523Z,100.00
2022-10-28T00:05:40.957Z,100.00
2022-10-28T00:10:43.254Z,100.00
2022-10-28T00:15:45.276Z,100.00
2022-10-28T00:20:48.777Z,100.00
2022-10-28T00:25:50.804Z,100.00
2022-10-28T00:30:52.422Z,100.00
2022-10-28T00:35:55.764Z,100.00
2022-10-28T00:40:57.692Z,100.00
2022-10-28T00:45:59.839Z,100.00
2022-10-28T00:51:03.541Z,100.00
2022-10-28T00:56:07.409Z,100.00
2022-10-28T01:01:09.351Z,100.00
2022-10-28T01:06:13.349Z,100.00
2022-10-28T01:11:40.840Z,100.00
2022-10-28T01:16:57.469Z,100.00
2022-10-28T01:22:10.814Z,100.00
2022-10-28T01:27:43.687Z,100.00
2022-10-28T01:32:58.144Z,100.00
2022-10-28T01:38:27.367Z,100.00
2022-10-28T01:43:34.812Z,100.00
2022-10-28T01:48:45.483Z,100.00
2022-10-28T01:53:51.699Z,100.00
2022-10-28T01:58:56.097Z,100.00
2022-10-28T02:03:59.724Z,100.00
2022-10-28T02:09:12.591Z,100.00
2022-10-28T02:14:48.392Z,100.00
2022-10-28T02:20:00.969Z,100.00
2022-10-28T02:25:08.227Z,100.00
2022-10-28T02:30:15.197Z,100.00
2022-10-28T02:35:23.281Z,100.00
2022-10-28T02:40:28.148Z,100.00
2022-10-28T02:45:35.292Z,100.00
2022-10-28T02:50:43.976Z,100.00
2022-10-28T02:55:50.993Z,100.00
2022-10-28T03:00:53.320Z,100.00
2022-10-28T03:05:56.767Z,100.00
2022-10-28T03:10:58.651Z,100.00
2022-10-28T03:16:00.646Z,100.00
2022-10-28T03:21:04.170Z,100.00
2022-10-28T03:26:07.318Z,100.00
2022-10-28T03:31:09.364Z,100.00
2022-10-28T03:36:12.892Z,100.00
2022-10-28T03:41:14.703Z,100.00
2022-10-28T03:46:17.163Z,100.00
2022-10-28T03:51:20.728Z,100.00
2022-10-28T03:56:22.922Z,100.00
2022-10-28T04:01:25.127Z,100.00
2022-10-28T04:06:28.523Z,100.00
2022-10-28T04:11:30.529Z,100.00
2022-10-28T04:16:32.159Z,100.00
2022-10-28T04:21:35.246Z,100.00
2022-10-28T04:26:37.273Z,100.00
2022-10-28T04:31:39.303Z,100.00
2022-10-28T04:36:42.739Z,100.00
2022-10-28T04:41:44.904Z,100.00
2022-10-28T04:46:47.315Z,100.00
2022-10-28T04:51:50.721Z,100.00
2022-10-28T04:56:53.914Z,100.00
2022-10-28T05:01:56.264Z,100.00
2022-10-28T05:06:59.710Z,100.00
2022-10-28T05:12:01.770Z,100.00
2022-10-28T05:17:03.819Z,100.00
2022-10-28T05:22:07.146Z,100.00
2022-10-28T05:27:09.383Z,100.00
2022-10-28T05:32:11.583Z,100.00
2022-10-28T05:37:15.210Z,100.00
2022-10-28T05:42:17.309Z,100.00
2022-10-28T05:47:19.657Z,100.00
2022-10-28T05:52:23.168Z,100.00
2022-10-28T05:57:24.788Z,100.00
2022-10-28T06:02:26.945Z,100.00
2022-10-28T06:07:30.248Z,100.00
2022-10-28T06:12:30.696Z,100.00
2022-10-28T06:17:32.409Z,100.00
2022-10-28T06:22:35.746Z,100.00
2022-10-28T06:27:37.785Z,100.00
2022-10-28T06:32:39.877Z,100.00
2022-10-28T06:37:43.555Z,100.00
2022-10-28T06:42:45.418Z,100.00
2022-10-28T06:47:48.821Z,100.00
2022-10-28T06:52:52.646Z,100.00
2022-10-28T06:57:58.723Z,100.00
2022-10-28T07:03:01.155Z,100.00
2022-10-28T07:08:05.550Z,100.00
2022-10-28T07:13:07.405Z,100.00
2022-10-28T07:18:09.594Z,100.00
2022-10-28T07:23:13.005Z,100.00
2022-10-28T07:28:15.026Z,100.00
2022-10-28T07:33:17.850Z,100.00
2022-10-28T07:38:20.994Z,98.95
2022-10-28T07:43:23.100Z,98.54
2022-10-28T07:48:25.489Z,99.01
2022-10-28T07:53:29.538Z,98.21
2022-10-28T07:58:31.909Z,97.46
2022-10-28T08:03:38.625Z,96.44
2022-10-28T08:08:42.839Z,95.45
2022-10-28T08:13:45.359Z,93.60
2022-10-28T08:18:47.448Z,93.17
2022-10-28T08:23:50.879Z,91.96
2022-10-28T08:28:53.102Z,90.03
2022-10-28T08:33:54.861Z,89.12
2022-10-28T08:38:58.348Z,86.98
2022-10-28T08:44:27.158Z,85.25
2022-10-28T08:49:33.245Z,86.09
2022-10-28T08:54:43.125Z,86.31
2022-10-28T08:59:46.507Z,84.45
2022-10-28T09:04:51.696Z,82.48
2022-10-28T09:09:56.105Z,81.49
2022-10-28T09:15:12.301Z,81.13
2022-10-28T09:20:19.381Z,80.11
2022-10-28T09:25:28.400Z,78.60
2022-10-28T09:30:40.488Z,76.58
2022-10-28T09:35:44.770Z,74.68
2022-10-28T09:40:52.875Z,71.86
2022-10-28T09:46:00.481Z,70.41
2022-10-28T09:51:02.975Z,70.19
2022-10-28T10:01:15.659Z,66.77
2022-10-28T10:06:20.243Z,53.98
2022-10-28T10:11:30.861Z,54.46
2022-10-28T10:16:40.897Z,49.07
2022-10-28T10:21:47.815Z,47.31
2022-10-28T10:26:51.381Z,45.58
2022-10-28T10:32:16.855Z,42.67
2022-10-28T10:37:21.440Z,41.13
2022-10-28T10:42:24.895Z,43.02
2022-10-28T10:47:27.175Z,42.49
2022-10-28T10:52:29.453Z,40.15
2022-10-28T10:57:34.548Z,42.71
2022-10-28T11:02:39.212Z,41.77
2022-10-28T11:07:47.170Z,44.50
2022-10-28T11:12:54.582Z,49.48
2022-10-28T11:17:59.745Z,53.38
2022-10-28T11:23:17.593Z,55.25
2022-10-28T11:28:34.374Z,56.19
2022-10-28T11:33:44.861Z,56.71
2022-10-28T11:39:15.966Z,56.74
2022-10-28T11:44:33.119Z,56.63
2022-10-28T11:50:01.709Z,57.17
2022-10-28T11:55:18.312Z,56.07
2022-10-28T12:00:41.134Z,55.81
2022-10-28T12:05:47.639Z,56.20
2022-10-28T12:10:59.365Z,54.93
2022-10-28T12:16:11.450Z,53.22
2022-10-28T12:21:20.609Z,51.72
2022-10-28T12:26:35.824Z,50.42
2022-10-28T12:31:45.075Z,50.73
2022-10-28T12:36:50.725Z,53.10
2022-10-28T12:42:00.298Z,54.74
2022-10-28T12:47:16.939Z,55.18
2022-10-28T12:52:32.064Z,56.11
2022-10-28T12:57:36.949Z,56.12
2022-10-28T13:02:47.435Z,56.42
2022-10-28T13:08:17.566Z,55.58
2022-10-28T13:13:43.758Z,55.08
2022-10-28T13:19:15.663Z,56.29
2022-10-28T13:24:21.621Z,56.84
2022-10-28T13:34:34.112Z,57.31
2022-10-28T13:39:43.629Z,57.60
2022-10-28T13:44:50.086Z,57.03
2022-10-28T13:50:40.948Z,56.91
2022-10-28T13:55:45.140Z,57.03
2022-10-28T14:00:50.494Z,56.94
2022-10-28T14:05:57.464Z,58.03
2022-10-28T14:11:04.369Z,58.23
2022-10-28T14:16:21.919Z,58.77
2022-10-28T14:21:24.461Z,58.74
2022-10-28T14:26:27.437Z,59.53
2022-10-28T14:31:43.211Z,60.71
2022-10-28T14:36:53.518Z,61.32
2022-10-28T14:42:22.735Z,61.38
2022-10-28T14:47:44.174Z,62.96
2022-10-28T14:52:48.085Z,63.16
2022-10-28T14:57:51.464Z,63.93
2022-10-28T15:02:55.306Z,64.63
2022-10-28T15:08:03.084Z,65.50
2022-10-28T15:13:06.936Z,66.62
2022-10-28T15:18:22.066Z,66.82
2022-10-28T15:23:24.614Z,66.93
2022-10-28T15:28:27.817Z,68.36
2022-10-28T15:33:30.909Z,67.67
2022-10-28T15:38:38.405Z,68.90
2022-10-28T15:43:41.849Z,68.84
2022-10-28T15:48:44.107Z,70.32
2022-10-28T15:53:46.519Z,71.01
2022-10-28T15:59:03.470Z,72.65
2022-10-28T16:04:06.349Z,74.47
2022-10-28T16:09:18.076Z,76.60
2022-10-28T16:14:32.067Z,77.58
2022-10-28T16:19:37.936Z,78.21
2022-10-28T16:24:40.027Z,78.87
2022-10-28T16:29:43.407Z,78.72
2022-10-28T16:34:45.543Z,80.45
2022-10-28T16:39:47.307Z,81.89
2022-10-28T16:44:51.185Z,82.02
2022-10-28T16:49:57.248Z,82.85
2022-10-28T16:55:00.430Z,83.42
2022-10-28T17:00:04.643Z,84.28
2022-10-28T17:05:14.851Z,82.59
2022-10-28T17:10:18.211Z,79.92
2022-10-28T17:15:21.233Z,79.74
2022-10-28T17:20:23.312Z,79.06
2022-10-28T17:25:25.270Z,79.07
2022-10-28T17:30:28.483Z,79.67
2022-10-28T17:35:30.430Z,79.80
2022-10-28T17:40:32.466Z,79.67
2022-10-28T17:45:36.033Z,80.80
2022-10-28T17:50:38.281Z,80.83
2022-10-28T17:55:40.329Z,81.44
2022-10-28T18:00:43.755Z,81.21
2022-10-28T18:05:45.782Z,80.98
2022-10-28T18:10:51.800Z,81.49
2022-10-28T18:15:54.868Z,81.46
2022-10-28T18:20:57.165Z,81.33
2022-10-28T18:25:59.333Z,82.81
2022-10-28T18:31:03.335Z,83.19
2022-10-28T18:36:07.338Z,84.20
2022-10-28T18:41:11.451Z,84.74
2022-10-28T18:46:15.167Z,84.71
2022-10-28T18:51:17.366Z,85.35
2022-10-28T18:56:21.056Z,86.60
2022-10-28T19:01:26.330Z,86.04
2022-10-28T19:06:30.897Z,86.33
2022-10-28T19:11:34.156Z,87.05
2022-10-28T19:16:37.771Z,87.58
2022-10-28T19:21:39.975Z,87.16
2022-10-28T19:26:42.203Z,87.52
2022-10-28T19:31:45.842Z,88.17
2022-10-28T19:36:47.810Z,88.29
2022-10-28T19:41:49.679Z,88.47
2022-10-28T19:46:53.160Z,89.79
2022-10-28T19:51:55.398Z,89.43
2022-10-28T19:56:57.148Z,90.84
2022-10-28T20:02:00.380Z,90.75
2022-10-28T20:07:02.345Z,91.75
2022-10-28T20:12:04.814Z,92.12
2022-10-28T20:17:08.432Z,93.49
2022-10-28T20:22:10.240Z,92.96
2022-10-28T20:27:12.343Z,94.46
2022-10-28T20:32:16.941Z,94.82
2022-10-28T20:37:19.044Z,95.29
2022-10-28T20:42:21.521Z,95.40
2022-10-28T20:47:24.653Z,95.24
2022-10-28T20:52:26.656Z,95.44
2022-10-28T20:57:28.313Z,95.58
2022-10-28T21:02:31.464Z,96.00
2022-10-28T21:07:33.451Z,96.47
2022-10-28T21:12:35.242Z,96.56
2022-10-28T21:17:38.360Z,96.86
2022-10-28T21:22:40.570Z,97.54
2022-10-28T21:27:42.979Z,97.78
2022-10-28T21:32:46.294Z,98.08
2022-10-28T21:37:48.269Z,98.32
2022-10-28T21:42:50.350Z,98.62
2022-10-28T21:47:55.895Z,98.75
2022-10-28T21:52:59.719Z,98.75
2022-10-28T21:58:04.173Z,98.77
2022-10-28T22:03:07.755Z,98.55
2022-10-28T22:08:10.060Z,98.57
2022-10-28T22:13:12.196Z,98.36
2022-10-28T22:18:15.429Z,98.51
2022-10-28T22:23:17.564Z,98.56
2022-10-28T22:28:19.658Z,98.75
2022-10-28T22:33:23.244Z,98.85
2022-10-28T22:38:25.937Z,98.93
2022-10-28T22:43:27.932Z,98.98
2022-10-28T22:48:31.841Z,98.61
2022-10-28T22:53:33.792Z,98.45
2022-10-28T22:58:35.900Z,97.93
2022-10-28T23:03:41.134Z,96.61
2022-10-28T23:08:44.545Z,96.24
2022-10-28T23:13:49.724Z,95.92
2022-10-28T23:18:53.246Z,95.35
2022-10-28T23:23:56.858Z,94.95
2022-10-28T23:28:59.985Z,94.20
2022-10-28T23:34:03.348Z,93.77
2022-10-28T23:39:05.372Z,93.69
2022-10-28T23:44:07.524Z,93.45
2022-10-28T23:49:10.888Z,93.83
2022-10-28T23:54:12.706Z,94.22
2022-10-28T23:59:14.861Z,94.36
